createdAt,value
2023-04-23T00:00:03.225Z,33.20
2023-04-23T00:03:10.441Z,26.80
2023-04-23T00:05:44.838Z,27.90
2023-04-23T00:08:19.508Z,26.80
2023-04-23T00:10:52.711Z,24.90
2023-04-23T00:13:25.601Z,31.70
2023-04-23T00:15:58.802Z,26.30
2023-04-23T00:18:31.026Z,25.20
2023-04-23T00:21:03.302Z,22.20
2023-04-23T00:26:53.270Z,25.30
2023-04-23T00:29:25.531Z,29.60
2023-04-23T00:31:57.942Z,22.70
2023-04-23T00:34:31.258Z,25.60
2023-04-23T00:37:08.090Z,24.30
2023-04-23T00:39:43.904Z,24.00
2023-04-23T00:42:17.397Z,25.60
2023-04-23T00:44:50.153Z,23.90
2023-04-23T00:47:23.406Z,24.60
2023-04-23T00:49:56.177Z,21.20
2023-04-23T00:52:29.428Z,24.20
2023-04-23T00:55:02.301Z,21.50
2023-04-23T00:57:34.879Z,21.70
2023-04-23T01:00:09.865Z,27.70
2023-04-23T01:02:44.850Z,21.90
2023-04-23T01:05:21.213Z,20.10
2023-04-23T01:07:53.755Z,23.10
2023-04-23T01:16:47.769Z,20.20
2023-04-23T01:19:20.104Z,19.40
2023-04-23T01:21:53.384Z,19.40
2023-04-23T01:24:25.589Z,21.70
2023-04-23T01:26:58.810Z,21.60
2023-04-23T01:29:31.839Z,22.40
2023-04-23T01:32:04.931Z,23.70
2023-04-23T01:34:37.933Z,19.90
2023-04-23T01:37:11.570Z,21.60
2023-04-23T01:39:43.712Z,20.30
2023-04-23T01:42:16.013Z,19.40
2023-04-23T01:44:48.493Z,25.40
2023-04-23T01:47:22.827Z,20.60
2023-04-23T01:49:55.100Z,20.20
2023-04-23T01:52:27.420Z,18.00
2023-04-23T02:09:00.662Z,23.40
2023-04-23T02:14:30.150Z,19.00
2023-04-23T02:17:04.131Z,20.00
2023-04-23T02:19:36.600Z,22.00
2023-04-23T02:22:11.755Z,21.70
2023-04-23T02:24:44.618Z,19.90
2023-04-23T02:27:17.214Z,25.30
2023-04-23T02:29:50.498Z,23.40
2023-04-23T02:32:22.811Z,28.20
2023-04-23T02:34:55.178Z,23.60
2023-04-23T02:37:28.222Z,26.90
2023-04-23T02:40:00.808Z,30.60
2023-04-23T02:42:33.325Z,25.60
2023-04-23T02:45:06.132Z,25.20
2023-04-23T02:47:38.508Z,30.30
2023-04-23T02:50:12.067Z,27.40
2023-04-23T02:52:44.232Z,34.70
2023-04-23T02:55:17.354Z,32.30
2023-04-23T02:57:49.605Z,29.90
2023-04-23T03:00:25.546Z,29.90
2023-04-23T03:02:57.905Z,32.10
2023-04-23T03:05:31.289Z,32.80
2023-04-23T03:08:03.951Z,39.10
2023-04-23T03:10:36.246Z,44.20
2023-04-23T03:13:10.247Z,39.80
2023-04-23T03:15:43.588Z,42.20
2023-04-23T03:18:16.182Z,44.80
2023-04-23T03:20:49.034Z,48.10
2023-04-23T03:23:21.726Z,54.60
2023-04-23T03:25:54.128Z,51.60
2023-04-23T03:28:26.345Z,54.80
2023-04-23T03:30:58.748Z,47.10
2023-04-23T03:33:30.995Z,47.30
2023-04-23T03:36:07.348Z,44.80
2023-04-23T03:38:42.826Z,48.40
2023-04-23T03:41:15.276Z,50.20
2023-04-23T03:43:47.912Z,45.80
2023-04-23T03:46:40.639Z,46.70
2023-04-23T03:49:12.807Z,37.70
2023-04-23T03:51:48.300Z,44.20
2023-04-23T03:54:20.992Z,47.10
2023-04-23T03:57:08.491Z,43.20
2023-04-23T03:59:44.330Z,42.60
2023-04-23T04:02:16.598Z,41.90
2023-04-23T04:04:51.889Z,38.00
2023-04-23T04:07:24.436Z,35.50
2023-04-23T04:09:56.533Z,35.20
2023-04-23T04:12:31.088Z,30.80
2023-04-23T04:15:03.453Z,35.10
2023-04-23T04:17:35.607Z,39.30
2023-04-23T04:20:11.307Z,37.50
2023-04-23T04:22:47.721Z,40.10
2023-04-23T04:25:24.338Z,33.70
2023-04-23T04:27:58.632Z,36.90
2023-04-23T04:30:34.033Z,31.60
2023-04-23T04:33:09.123Z,34.60
2023-04-23T04:35:45.848Z,32.80
2023-04-23T04:38:22.453Z,32.60
2023-04-23T04:41:03.382Z,28.80
2023-04-23T04:43:38.576Z,29.80
2023-04-23T04:46:15.138Z,29.80
2023-04-23T04:48:54.108Z,28.90
2023-04-23T04:51:29.447Z,23.60
2023-04-23T04:54:03.940Z,29.60
2023-04-23T04:56:37.358Z,27.20
2023-04-23T04:59:10.064Z,27.00
2023-04-23T05:01:48.710Z,27.20
2023-04-23T05:04:21.152Z,29.10
2023-04-23T05:06:56.595Z,30.60
2023-04-23T05:09:34.110Z,30.60
2023-04-23T05:12:08.681Z,26.40
2023-04-23T05:14:41.835Z,29.00
2023-04-23T05:17:16.858Z,28.80
2023-04-23T05:19:51.887Z,29.50
2023-04-23T05:22:32.129Z,24.10
2023-04-23T05:25:05.772Z,25.20
2023-04-23T05:27:38.162Z,32.80
2023-04-23T05:30:12.572Z,24.80
2023-04-23T05:32:45.755Z,33.40
2023-04-23T05:35:18.244Z,31.20
2023-04-23T05:37:53.569Z,29.50
2023-04-23T05:40:25.974Z,26.40
2023-04-23T05:43:00.128Z,24.50
2023-04-23T05:45:32.468Z,26.40
2023-04-23T05:48:07.733Z,29.90
2023-04-23T05:50:40.146Z,26.90
2023-04-23T05:53:12.730Z,26.70
2023-04-23T05:55:45.042Z,20.90
2023-04-23T05:58:19.347Z,20.10
2023-04-23T06:00:53.221Z,24.00
2023-04-23T06:03:28.716Z,22.40
2023-04-23T06:06:04.165Z,24.20
2023-04-23T06:11:53.307Z,26.90
2023-04-23T06:14:27.816Z,24.00
2023-04-23T06:17:00.050Z,24.80
2023-04-23T06:19:32.825Z,23.00
2023-04-23T06:22:05.245Z,24.10
2023-04-23T06:24:37.779Z,23.50
2023-04-23T06:30:21.223Z,22.70
2023-04-23T06:32:53.705Z,23.70
2023-04-23T06:35:26.453Z,19.20
2023-04-23T06:41:23.549Z,21.90
2023-04-23T06:44:09.442Z,16.50
2023-04-23T06:46:51.345Z,14.50
2023-04-23T06:49:23.806Z,17.60
2023-04-23T06:52:03.061Z,19.70
2023-04-23T06:54:36.295Z,16.10
2023-04-23T07:07:54.623Z,12.20
2023-04-23T07:10:28.021Z,13.10
2023-04-23T07:13:03.998Z,12.30
2023-04-23T07:15:38.106Z,18.10
2023-04-23T07:18:10.806Z,12.70
2023-04-23T07:20:43.946Z,14.20
2023-04-23T07:23:19.121Z,13.40
2023-04-23T07:25:51.815Z,12.40
2023-04-23T07:28:24.153Z,16.40
2023-04-23T07:30:56.519Z,12.50
2023-04-23T07:33:29.293Z,13.10
2023-04-23T07:36:01.884Z,10.10
2023-04-23T07:38:41.116Z,13.20
2023-04-23T07:41:16.180Z,12.20
2023-04-23T07:43:49.083Z,10.20
2023-04-23T07:46:22.108Z,12.40
2023-04-23T07:48:54.691Z,11.60
2023-04-23T07:51:27.865Z,14.40
2023-04-23T07:54:00.237Z,9.40
2023-04-23T07:56:33.629Z,13.90
2023-04-23T07:59:06.644Z,10.70
2023-04-23T08:01:41.743Z,12.40
2023-04-23T08:04:14.863Z,11.00
2023-04-23T08:06:50.214Z,9.60
2023-04-23T08:09:22.463Z,9.40
2023-04-23T08:11:55.363Z,7.70
2023-04-23T08:14:27.709Z,9.60
2023-04-23T08:21:31.917Z,12.60
2023-04-23T08:24:04.471Z,11.20
2023-04-23T08:26:36.761Z,11.00
2023-04-23T08:29:11.012Z,12.10
2023-04-23T08:31:44.169Z,8.10
2023-04-23T08:34:16.630Z,5.70
2023-04-23T08:36:49.555Z,9.70
2023-04-23T08:39:24.803Z,6.80
2023-04-23T08:41:59.690Z,7.00
2023-04-23T08:44:33.711Z,6.60
2023-04-23T08:47:09.043Z,11.00
2023-04-23T08:49:46.593Z,10.90
2023-04-23T08:52:24.166Z,9.60
2023-04-23T08:55:02.910Z,12.20
2023-04-23T08:57:41.775Z,11.30
2023-04-23T09:00:16.756Z,12.70
2023-04-23T09:02:50.287Z,12.10
2023-04-23T09:05:27.445Z,14.00
2023-04-23T09:08:00.948Z,10.00
2023-04-23T09:10:35.559Z,8.70
2023-04-23T09:13:07.869Z,8.80
2023-04-23T09:15:43.744Z,9.10
2023-04-23T09:18:16.268Z,6.90
2023-04-23T09:20:48.820Z,6.80
2023-04-23T09:23:24.572Z,7.30
2023-04-23T09:25:57.513Z,6.50
2023-04-23T09:28:38.339Z,6.00
2023-04-23T09:31:11.478Z,6.70
2023-04-23T09:33:45.194Z,11.30
2023-04-23T09:36:21.501Z,9.10
2023-04-23T09:38:57.218Z,10.10
2023-04-23T09:41:31.348Z,6.00
2023-04-23T09:44:03.835Z,6.10
2023-04-23T09:46:41.927Z,7.50
2023-04-23T09:49:16.917Z,8.40
2023-04-23T09:51:51.293Z,8.10
2023-04-23T09:54:26.505Z,6.20
2023-04-23T09:57:02.173Z,8.60
2023-04-23T09:59:46.883Z,9.70
2023-04-23T10:02:20.064Z,6.60
2023-04-23T10:08:02.106Z,6.10
2023-04-23T10:10:47.028Z,7.60
2023-04-23T10:13:30.550Z,7.00
2023-04-23T10:16:20.757Z,6.00
2023-04-23T10:18:57.036Z,6.40
2023-04-23T10:21:46.206Z,9.70
2023-04-23T10:24:24.913Z,6.10
2023-04-23T10:27:02.076Z,5.00
2023-04-23T10:29:36.232Z,6.70
2023-04-23T10:32:09.305Z,4.80
2023-04-23T10:34:43.354Z,4.80
2023-04-23T10:37:16.591Z,6.00
2023-04-23T10:39:57.346Z,4.80
2023-04-23T10:42:29.733Z,6.20
2023-04-23T10:45:10.110Z,6.00
2023-04-23T10:47:49.207Z,5.60
2023-04-23T10:50:27.372Z,4.20
2023-04-23T10:52:59.739Z,5.90
2023-04-23T10:55:33.660Z,7.40
2023-04-23T10:58:07.493Z,8.50
2023-04-23T11:00:49.110Z,7.00
2023-04-23T11:03:43.322Z,6.50
2023-04-23T11:06:34.626Z,5.40
2023-04-23T11:09:39.862Z,5.40
2023-04-23T11:12:14.509Z,6.20
2023-04-23T11:14:50.134Z,5.90
2023-04-23T11:17:48.437Z,5.40
2023-04-23T11:20:22.795Z,6.10
2023-04-23T11:22:55.971Z,4.10
2023-04-23T11:25:30.732Z,6.90
2023-04-23T11:28:02.938Z,4.90
2023-04-23T11:30:37.271Z,4.60
2023-04-23T11:33:14.780Z,4.90
2023-04-23T11:35:47.049Z,11.70
2023-04-23T11:38:22.924Z,5.20
2023-04-23T11:40:56.016Z,8.30
2023-04-23T11:43:29.379Z,15.20
2023-04-23T11:46:03.515Z,12.60
2023-04-23T11:48:36.272Z,7.10
2023-04-23T11:51:08.570Z,7.90
2023-04-23T11:53:47.890Z,5.70
2023-04-23T11:56:21.576Z,49.80
2023-04-23T11:59:04.298Z,4.30
2023-04-23T12:01:50.462Z,5.00
2023-04-23T12:04:26.441Z,20.40
2023-04-23T12:07:04.323Z,6.70
2023-04-23T12:09:40.325Z,7.50
2023-04-23T12:12:12.566Z,6.10
2023-04-23T12:14:44.722Z,6.50
2023-04-23T12:17:19.446Z,5.00
2023-04-23T12:19:51.761Z,5.70
2023-04-23T12:22:29.406Z,7.30
2023-04-23T12:25:07.921Z,5.80
2023-04-23T12:27:45.811Z,5.70
2023-04-23T12:30:18.218Z,11.40
2023-04-23T12:32:50.396Z,6.60
2023-04-23T12:35:24.588Z,6.20
2023-04-23T12:37:59.020Z,6.40
2023-04-23T12:40:31.845Z,7.70
2023-04-23T12:43:03.958Z,4.90
2023-04-23T12:45:40.911Z,7.10
2023-04-23T12:48:13.176Z,7.30
2023-04-23T12:50:49.365Z,4.90
2023-04-23T12:53:22.467Z,7.00
2023-04-23T12:55:54.588Z,6.20
2023-04-23T13:01:35.599Z,5.70
2023-04-23T13:04:18.224Z,5.10
2023-04-23T13:06:50.765Z,5.90
2023-04-23T13:09:26.871Z,8.40
2023-04-23T13:12:00.908Z,6.90
2023-04-23T13:14:33.328Z,5.00
2023-04-23T13:17:07.058Z,7.90
2023-04-23T13:19:40.000Z,5.50
2023-04-23T13:22:12.347Z,4.30
2023-04-23T13:24:44.416Z,5.50
2023-04-23T13:27:16.602Z,6.80
2023-04-23T13:29:48.632Z,5.70
2023-04-23T13:32:22.571Z,7.20
2023-04-23T13:34:54.766Z,6.40
2023-04-23T13:37:31.539Z,5.60
2023-04-23T13:40:04.023Z,5.20
2023-04-23T13:42:36.247Z,12.90
2023-04-23T13:45:09.736Z,6.10
2023-04-23T13:47:42.084Z,4.80
2023-04-23T13:50:16.557Z,5.30
2023-04-23T13:52:48.699Z,6.70
2023-04-23T13:55:21.059Z,4.50
2023-04-23T14:01:02.544Z,5.40
2023-04-23T14:03:34.614Z,5.60
2023-04-23T14:06:07.177Z,4.30
2023-04-23T14:08:41.125Z,7.10
2023-04-23T14:11:13.298Z,7.00
2023-04-23T14:13:45.385Z,3.90
2023-04-23T14:16:17.949Z,4.90
2023-04-23T14:18:50.178Z,6.20
2023-04-23T14:21:23.544Z,4.20
2023-04-23T14:24:03.096Z,6.30
2023-04-23T14:29:30.344Z,5.50
2023-04-23T14:32:02.682Z,7.20
2023-04-23T14:34:37.552Z,7.00
2023-04-23T14:37:09.972Z,13.10
2023-04-23T14:39:42.580Z,6.40
2023-04-23T14:42:15.140Z,3.80
2023-04-23T14:44:50.048Z,4.90
2023-04-23T14:47:22.299Z,4.70
2023-04-23T14:49:54.605Z,5.30
2023-04-23T14:52:26.906Z,5.70
2023-04-23T14:54:58.968Z,5.30
2023-04-23T14:57:31.478Z,5.10
2023-04-23T15:00:03.822Z,8.20
2023-04-23T15:02:38.102Z,6.80
2023-04-23T15:05:13.618Z,8.30
2023-04-23T15:07:45.948Z,4.30
2023-04-23T15:10:18.960Z,4.80
2023-04-23T15:13:08.376Z,19.80
2023-04-23T15:15:50.516Z,6.10
2023-04-23T15:18:25.208Z,5.80
2023-04-23T15:24:54.400Z,27.90
2023-04-23T15:27:28.131Z,16.60
2023-04-23T15:33:09.534Z,8.20
2023-04-23T15:35:41.710Z,6.10
2023-04-23T15:38:14.185Z,7.10
2023-04-23T15:40:46.400Z,5.10
2023-04-23T15:43:19.676Z,4.90
2023-04-23T15:45:53.905Z,8.20
2023-04-23T15:48:27.237Z,4.80
2023-04-23T15:51:06.080Z,6.50
2023-04-23T15:53:41.928Z,8.00
2023-04-23T15:56:14.635Z,8.50
2023-04-23T15:58:47.342Z,6.50
2023-04-23T16:01:20.110Z,5.40
2023-04-23T16:04:08.749Z,4.00
2023-04-23T16:06:42.694Z,11.20
2023-04-23T16:09:15.428Z,8.40
2023-04-23T16:14:57.308Z,7.10
2023-04-23T16:17:29.879Z,4.80
2023-04-23T16:20:02.457Z,11.90
2023-04-23T16:22:36.055Z,11.30
2023-04-23T16:25:09.355Z,8.20
2023-04-23T16:27:41.737Z,9.40
2023-04-23T16:30:14.925Z,6.90
2023-04-23T16:32:47.394Z,10.00
2023-04-23T16:35:19.894Z,7.90
2023-04-23T16:37:52.180Z,6.70
2023-04-23T16:40:24.628Z,5.50
2023-04-23T16:42:56.889Z,9.40
2023-04-23T16:45:29.305Z,12.30
2023-04-23T16:48:01.639Z,10.70
2023-04-23T16:50:36.672Z,12.80
2023-04-23T16:53:55.805Z,8.70
2023-04-23T16:56:29.592Z,8.00
2023-04-23T16:59:02.847Z,9.60
2023-04-23T17:01:36.881Z,7.60
2023-04-23T17:04:12.073Z,10.70
2023-04-23T17:06:44.396Z,10.70
2023-04-23T17:09:16.640Z,12.90
2023-04-23T17:11:48.998Z,18.10
2023-04-23T17:25:02.527Z,11.10
2023-04-23T17:27:34.967Z,12.20
2023-04-23T17:30:08.680Z,10.80
2023-04-23T17:32:41.221Z,9.10
2023-04-23T17:35:13.747Z,9.60
2023-04-23T17:37:46.917Z,6.90
2023-04-23T17:40:19.872Z,10.10
2023-04-23T17:42:52.447Z,8.50
2023-04-23T17:48:38.010Z,6.40
2023-04-23T17:51:10.562Z,4.80
2023-04-23T17:53:48.266Z,5.20
2023-04-23T17:56:20.943Z,6.80
2023-04-23T17:58:53.675Z,11.50
2023-04-23T18:01:26.243Z,6.50
2023-04-23T18:03:58.914Z,7.40
2023-04-23T18:06:31.975Z,6.90
2023-04-23T18:09:04.727Z,7.00
2023-04-23T18:11:37.855Z,6.20
2023-04-23T18:14:14.563Z,9.20
2023-04-23T18:27:34.477Z,10.80
2023-04-23T18:30:08.361Z,12.90
2023-04-23T18:32:48.503Z,10.00
2023-04-23T18:35:21.041Z,13.70
2023-04-23T18:40:51.989Z,6.20
2023-04-23T18:43:26.022Z,8.50
2023-04-23T18:46:01.717Z,6.30
2023-04-23T18:48:53.091Z,8.50
2023-04-23T18:51:38.241Z,7.10
2023-04-23T18:54:14.934Z,6.20
2023-04-23T18:56:47.906Z,7.30
2023-04-23T18:59:20.617Z,6.50
2023-04-23T19:01:56.840Z,6.60
2023-04-23T19:04:30.037Z,6.70
2023-04-23T19:07:03.628Z,6.80
2023-04-23T19:12:56.131Z,8.10
2023-04-23T19:15:30.960Z,7.30
2023-04-23T19:18:03.559Z,9.60
2023-04-23T19:20:39.088Z,15.10
2023-04-23T19:23:11.801Z,10.60
2023-04-23T19:25:44.635Z,26.90
2023-04-23T19:28:17.215Z,20.60
2023-04-23T19:30:49.862Z,19.60
2023-04-23T19:33:23.965Z,19.60
2023-04-23T19:35:56.361Z,14.40
2023-04-23T19:38:28.752Z,17.10
2023-04-23T19:41:04.000Z,23.70
2023-04-23T19:43:36.600Z,19.70
2023-04-23T19:46:08.975Z,20.50
2023-04-23T19:48:41.574Z,24.00
2023-04-23T19:51:14.164Z,14.40
2023-04-23T19:53:48.654Z,16.80
2023-04-23T19:56:22.992Z,15.20
2023-04-23T19:58:55.884Z,14.90
2023-04-23T20:01:30.082Z,15.90
2023-04-23T20:04:02.702Z,13.40
2023-04-23T20:06:35.141Z,24.00
2023-04-23T20:09:18.207Z,21.70
2023-04-23T20:11:50.783Z,24.00
2023-04-23T20:14:29.815Z,21.00
2023-04-23T20:17:02.359Z,23.10
2023-04-23T20:19:35.914Z,20.90
2023-04-23T20:22:08.261Z,21.40
2023-04-23T20:24:46.590Z,18.40
2023-04-23T20:27:21.453Z,22.40
2023-04-23T20:29:54.432Z,18.60
2023-04-23T20:32:26.853Z,15.50
2023-04-23T20:35:00.331Z,18.90
2023-04-23T20:37:32.853Z,17.40
2023-04-23T20:40:07.736Z,19.20
2023-04-23T20:42:40.013Z,19.20
2023-04-23T20:45:16.302Z,18.20
2023-04-23T20:47:49.183Z,17.60
2023-04-23T20:50:21.817Z,18.90
2023-04-23T20:52:54.274Z,14.10
2023-04-23T20:55:26.996Z,22.70
2023-04-23T20:57:59.241Z,25.60
2023-04-23T21:00:32.114Z,20.90
2023-04-23T21:03:04.627Z,19.20
2023-04-23T21:05:38.304Z,17.90
2023-04-23T21:08:11.683Z,22.80
2023-04-23T21:10:45.138Z,16.70
2023-04-23T21:13:17.308Z,18.60
2023-04-23T21:15:49.467Z,17.50
2023-04-23T21:18:26.109Z,20.90
2023-04-23T21:20:58.324Z,16.50
2023-04-23T21:23:33.349Z,18.70
2023-04-23T21:26:05.971Z,14.80
2023-04-23T21:28:38.865Z,16.30
2023-04-23T21:31:19.359Z,17.40
2023-04-23T21:36:28.641Z,21.50
2023-04-23T21:39:02.013Z,17.80
2023-04-23T21:41:34.327Z,15.40
2023-04-23T21:44:07.763Z,17.40
2023-04-23T21:46:43.204Z,21.20
2023-04-23T21:49:17.409Z,17.70
2023-04-23T21:51:50.258Z,17.40
2023-04-23T21:54:22.935Z,14.80
2023-04-23T21:56:56.619Z,15.60
2023-04-23T21:59:29.056Z,14.60
2023-04-23T22:02:01.433Z,17.90
2023-04-23T22:04:33.985Z,16.40
2023-04-23T22:07:07.498Z,20.20
2023-04-23T22:09:39.858Z,18.50
2023-04-23T22:12:12.705Z,18.30
2023-04-23T22:14:45.171Z,18.00
2023-04-23T22:17:18.809Z,18.10
2023-04-23T22:19:51.179Z,16.90
2023-04-23T22:22:26.267Z,19.70
2023-04-23T22:24:58.709Z,19.30
2023-04-23T22:27:33.536Z,19.20
2023-04-23T22:30:08.850Z,18.60
2023-04-23T22:32:41.591Z,17.00
2023-04-23T22:35:16.939Z,16.10
2023-04-23T22:37:51.856Z,14.70
2023-04-23T22:40:24.728Z,17.20
2023-04-23T22:42:57.144Z,15.20
2023-04-23T22:45:29.560Z,15.80
2023-04-23T22:48:01.984Z,20.20
2023-04-23T22:50:40.135Z,18.00
2023-04-23T22:53:12.608Z,13.60
2023-04-23T22:55:47.672Z,14.40
2023-04-23T22:58:20.063Z,14.90
2023-04-23T23:00:52.363Z,13.10
2023-04-23T23:03:25.610Z,14.30
2023-04-23T23:05:59.157Z,11.60
2023-04-23T23:08:31.547Z,12.30
2023-04-23T23:11:04.126Z,12.90
2023-04-23T23:13:37.304Z,12.30
2023-04-23T23:16:09.942Z,15.90
2023-04-23T23:18:44.914Z,19.00
2023-04-23T23:21:17.298Z,17.10
2023-04-23T23:23:49.530Z,18.80
2023-04-23T23:26:21.806Z,17.10
2023-04-23T23:28:54.212Z,15.60
2023-04-23T23:31:27.455Z,17.30
2023-04-23T23:34:00.085Z,19.20
2023-04-23T23:36:54.436Z,19.10
2023-04-23T23:39:27.587Z,20.80
2023-04-23T23:42:00.026Z,29.40
2023-04-23T23:44:32.290Z,20.20
2023-04-23T23:47:05.031Z,21.30
2023-04-23T23:49:37.534Z,21.90
2023-04-23T23:52:09.731Z,19.70
2023-04-23T23:54:43.245Z,22.70
2023-04-23T23:57:15.561Z,21.50
2023-04-23T23:59:48.106Z,18.10
